Independence, KS

4:13 PM CST on January 19, 2017 (GMT -0600)
Independence Municipal | | Change Station
Active Advisory: Dense Fog Advisory

Elev 823 ft 37.16 °N, 95.78 °W | Updated 18 minutes ago

Overcast
Overcast
50 °F
Feels Like 50 °F
N
10
Wind Variable Wind from South

Today
High -- | Low -- °F
--% Chance of Precip.
Yesterday
High -- | Low -- °F
Precip. -- in
Pressure 29.63 in
Visibility 10.0 miles
Clouds Scattered Clouds 900 ft
Overcast 1300 ft
Dew Point 45 °F
Humidity 82%
Rainfall 0.00 in
Snow Depth Not available.
7:33 AM 5:33 PM
Waning Gibbous, 50% visible
METAR KIDP 192155Z AUTO 17009KT 10SM SCT009 OVC013 10/07 A2963 RMK AO2
Pressure 29.63 in
Visibility 10.0 miles
Clouds Scattered Clouds 900 ft
Overcast 1300 ft
Dew Point 45 °F
Humidity 82%
Rainfall 0.00 in
Snow Depth Not available.
7:33 AM 5:33 PM
Waning Gibbous, 50% visible
METAR KIDP 192155Z AUTO 17009KT 10SM SCT009 OVC013 10/07 A2963 RMK AO2

Get Your Daily Forecast Email!

Thanks for signing up!

Be on the lookout for a verification email in your inbox.

You'll start receiving the daily forecast at 8 AM.

×

10-Day Weather Forecast

Almanac

Astronomy

Jan. 19, 2017 Rise Set
Actual Time
Civil Twilight
Nautical Twilight
Astronomical Twilight
Moon
Length of Visible Light
Length of Day
Tomorrow will be .
, % of the Moon is Illuminated

Today's Extremes

State Highs State Lows

Community

WunderPhotos

Upload Photos

1,962,540 photos uploaded!

WunderBlog® & News

Nearby

Air Quality

  Air Quality AQ Index Pollutant
Not available.

Snow Depth

Station Depth Elevation

Earthquake Activity

City Distance Mag. Time & Date
Minimum magnitude displayed is 2.5.

Coastal Water Temperatures

Place Temperature

Stations

Nearby Weather Stations

Station Location Temp. Windchill Dew Point Humidity Wind Precip. Elev Updated Type
                   

Watches & Warnings

Dense Fog Advisory
Issued: 3:25 PM CST Jan. 19, 2017 – National Weather Service

... Dense fog advisory in effect from 10 PM this evening to 10 am
CST Friday...

The National Weather Service in Wichita has issued a dense fog
advisory... which is in effect from 10 PM this evening to 10 am
CST Friday.

* Timing... dense fog is expected to develop later this evening and
persist through early Friday morning.

* Visibilities... as low as one-quarter mile or less are expected.

* Impacts... in the dense fog include sudden reductions in
visibility over short distances which will impact travel,
especially at higher speeds.

Precautionary/preparedness actions...

A dense fog advisory means visibilities will frequently be
reduced to less than one quarter mile. If driving... slow down.
Use your headlights and leave plenty of distance ahead of you.